sensor_id;sensor_type;location;lat;lon;timestamp;pressure;altitude;pressure_sealevel;temperature;humidity
40708;BME280;26392;42.696;23.350;2022-10-28T00:00:21;96556.53;;;10.72;85.97
40708;BME280;26392;42.696;23.350;2022-10-28T00:02:46;96562.22;;;10.70;86.00
40708;BME280;26392;42.696;23.350;2022-10-28T00:05:12;96563.13;;;10.64;86.19
40708;BME280;26392;42.696;23.350;2022-10-28T00:07:37;96555.78;;;10.65;86.46
40708;BME280;26392;42.696;23.350;2022-10-28T00:10:03;96544.09;;;10.58;86.72
40708;BME280;26392;42.696;23.350;2022-10-28T00:12:29;96557.09;;;10.56;86.75
40708;BME280;26392;42.696;23.350;2022-10-28T00:14:54;96549.53;;;10.58;86.98
40708;BME280;26392;42.696;23.350;2022-10-28T00:17:19;96551.28;;;10.52;86.99
40708;BME280;26392;42.696;23.350;2022-10-28T00:19:45;96549.16;;;10.54;86.61
40708;BME280;26392;42.696;23.350;2022-10-28T00:22:10;96547.53;;;10.53;86.54
40708;BME280;26392;42.696;23.350;2022-10-28T00:24:36;96545.84;;;10.52;86.45
40708;BME280;26392;42.696;23.350;2022-10-28T00:27:01;96546.28;;;10.49;86.83
40708;BME280;26392;42.696;23.350;2022-10-28T00:29:26;96548.63;;;10.45;86.99
40708;BME280;26392;42.696;23.350;2022-10-28T00:31:52;96541.75;;;10.43;87.22
40708;BME280;26392;42.696;23.350;2022-10-28T00:34:19;96540.13;;;10.35;87.16
40708;BME280;26392;42.696;23.350;2022-10-28T00:36:46;96540.78;;;10.30;87.62
40708;BME280;26392;42.696;23.350;2022-10-28T00:39:17;96538.34;;;10.22;87.99
40708;BME280;26392;42.696;23.350;2022-10-28T00:41:45;96538.75;;;10.19;88.09
40708;BME280;26392;42.696;23.350;2022-10-28T00:44:42;96539.16;;;10.23;87.72
40708;BME280;26392;42.696;23.350;2022-10-28T00:50:11;96535.63;;;10.22;87.55
40708;BME280;26392;42.696;23.350;2022-10-28T00:52:39;96540.06;;;10.17;87.60
40708;BME280;26392;42.696;23.350;2022-10-28T00:55:06;96539.44;;;10.15;87.94
40708;BME280;26392;42.696;23.350;2022-10-28T00:57:34;96546.53;;;10.16;87.94
40708;BME280;26392;42.696;23.350;2022-10-28T01:00:03;96545.78;;;10.08;87.50
40708;BME280;26392;42.696;23.350;2022-10-28T01:02:29;96538.63;;;10.14;87.19
40708;BME280;26392;42.696;23.350;2022-10-28T01:04:56;96550.38;;;10.08;87.29
40708;BME280;26392;42.696;23.350;2022-10-28T01:07:22;96546.50;;;9.97;87.45
40708;BME280;26392;42.696;23.350;2022-10-28T01:09:47;96544.78;;;10.03;87.70
40708;BME280;26392;42.696;23.350;2022-10-28T01:15:29;96540.75;;;9.80;88.42
40708;BME280;26392;42.696;23.350;2022-10-28T01:23:44;96538.31;;;9.72;88.58
40708;BME280;26392;42.696;23.350;2022-10-28T01:26:29;96545.47;;;9.67;89.40
40708;BME280;26392;42.696;23.350;2022-10-28T01:31:56;96537.31;;;9.67;89.15
40708;BME280;26392;42.696;23.350;2022-10-28T01:34:39;96542.88;;;9.72;88.90
40708;BME280;26392;42.696;23.350;2022-10-28T01:37:14;96538.13;;;9.67;89.44
40708;BME280;26392;42.696;23.350;2022-10-28T01:42:33;96545.84;;;9.70;89.07
40708;BME280;26392;42.696;23.350;2022-10-28T01:45:14;96549.66;;;9.62;89.31
40708;BME280;26392;42.696;23.350;2022-10-28T01:50:24;96548.22;;;9.60;89.22
40708;BME280;26392;42.696;23.350;2022-10-28T01:52:57;96553.69;;;9.53;89.45
40708;BME280;26392;42.696;23.350;2022-10-28T01:55:27;96560.34;;;9.57;89.41
40708;BME280;26392;42.696;23.350;2022-10-28T01:57:58;96562.50;;;9.55;89.49
40708;BME280;26392;42.696;23.350;2022-10-28T02:00:24;96555.41;;;9.48;89.38
40708;BME280;26392;42.696;23.350;2022-10-28T02:02:51;96561.28;;;9.45;89.67
40708;BME280;26392;42.696;23.350;2022-10-28T02:13:18;96553.66;;;9.22;90.03
40708;BME280;26392;42.696;23.350;2022-10-28T02:21:40;96548.75;;;8.92;90.79
40708;BME280;26392;42.696;23.350;2022-10-28T02:26:44;96556.97;;;8.72;91.66
40708;BME280;26392;42.696;23.350;2022-10-28T02:29:24;96572.44;;;8.65;92.06
40708;BME280;26392;42.696;23.350;2022-10-28T02:31:55;96566.38;;;8.69;92.19
40708;BME280;26392;42.696;23.350;2022-10-28T02:34:28;96564.72;;;8.62;92.23
40708;BME280;26392;42.696;23.350;2022-10-28T02:36:57;96565.38;;;8.57;92.06
40708;BME280;26392;42.696;23.350;2022-10-28T02:39:29;96559.91;;;8.64;92.07
40708;BME280;26392;42.696;23.350;2022-10-28T02:42:39;96573.75;;;8.49;92.35
40708;BME280;26392;42.696;23.350;2022-10-28T02:45:28;96571.19;;;8.34;93.02
40708;BME280;26392;42.696;23.350;2022-10-28T02:48:00;96575.41;;;8.30;93.14
40708;BME280;26392;42.696;23.350;2022-10-28T02:50:34;96566.81;;;8.33;93.39
40708;BME280;26392;42.696;23.350;2022-10-28T02:53:03;96566.84;;;8.40;92.94
40708;BME280;26392;42.696;23.350;2022-10-28T02:55:34;96560.78;;;8.44;92.41
40708;BME280;26392;42.696;23.350;2022-10-28T02:58:00;96567.69;;;8.47;92.06
40708;BME280;26392;42.696;23.350;2022-10-28T03:00:26;96569.78;;;8.51;91.76
40708;BME280;26392;42.696;23.350;2022-10-28T03:02:51;96570.19;;;8.55;91.93
40708;BME280;26392;42.696;23.350;2022-10-28T03:05:16;96571.84;;;8.63;91.75
40708;BME280;26392;42.696;23.350;2022-10-28T03:07:42;96569.94;;;8.57;91.58
40708;BME280;26392;42.696;23.350;2022-10-28T03:10:08;96570.81;;;8.57;91.55
40708;BME280;26392;42.696;23.350;2022-10-28T03:12:34;96575.63;;;8.42;91.35
40708;BME280;26392;42.696;23.350;2022-10-28T03:14:59;96560.16;;;8.42;92.11
40708;BME280;26392;42.696;23.350;2022-10-28T03:17:26;96567.47;;;8.42;91.86
40708;BME280;26392;42.696;23.350;2022-10-28T03:19:51;96571.63;;;8.38;92.21
40708;BME280;26392;42.696;23.350;2022-10-28T03:22:16;96574.34;;;8.38;92.08
40708;BME280;26392;42.696;23.350;2022-10-28T03:24:42;96571.44;;;8.39;92.67
40708;BME280;26392;42.696;23.350;2022-10-28T03:27:07;96566.00;;;8.39;92.24
40708;BME280;26392;42.696;23.350;2022-10-28T03:29:33;96567.22;;;8.37;92.37
40708;BME280;26392;42.696;23.350;2022-10-28T03:31:58;96570.38;;;8.34;92.67
40708;BME280;26392;42.696;23.350;2022-10-28T03:34:23;96569.94;;;8.37;92.56
40708;BME280;26392;42.696;23.350;2022-10-28T03:36:49;96580.00;;;8.29;92.74
40708;BME280;26392;42.696;23.350;2022-10-28T03:39:14;96571.63;;;8.24;93.24
40708;BME280;26392;42.696;23.350;2022-10-28T03:41:39;96577.91;;;8.25;93.05
40708;BME280;26392;42.696;23.350;2022-10-28T03:44:05;96575.41;;;8.23;93.57
40708;BME280;26392;42.696;23.350;2022-10-28T03:46:30;96569.56;;;8.26;93.14
40708;BME280;26392;42.696;23.350;2022-10-28T03:48:56;96575.81;;;8.27;92.80
40708;BME280;26392;42.696;23.350;2022-10-28T03:51:21;96586.66;;;8.34;93.16
40708;BME280;26392;42.696;23.350;2022-10-28T03:53:47;96570.78;;;8.30;92.55
40708;BME280;26392;42.696;23.350;2022-10-28T03:56:12;96564.50;;;8.37;92.79
40708;BME280;26392;42.696;23.350;2022-10-28T03:58:37;96578.31;;;8.35;92.72
40708;BME280;26392;42.696;23.350;2022-10-28T04:01:03;96582.94;;;8.35;93.06
40708;BME280;26392;42.696;23.350;2022-10-28T04:03:28;96582.50;;;8.24;92.77
40708;BME280;26392;42.696;23.350;2022-10-28T04:05:54;96592.09;;;8.20;93.07
40708;BME280;26392;42.696;23.350;2022-10-28T04:08:19;96585.22;;;8.11;93.33
40708;BME280;26392;42.696;23.350;2022-10-28T04:10:45;96588.13;;;8.03;93.41
40708;BME280;26392;42.696;23.350;2022-10-28T04:13:11;96594.19;;;8.05;94.06
40708;BME280;26392;42.696;23.350;2022-10-28T04:15:37;96584.41;;;8.04;93.55
40708;BME280;26392;42.696;23.350;2022-10-28T04:18:02;96580.81;;;7.97;93.96
40708;BME280;26392;42.696;23.350;2022-10-28T04:20:29;96587.28;;;7.82;94.68
40708;BME280;26392;42.696;23.350;2022-10-28T04:22:55;96589.13;;;7.75;95.19
40708;BME280;26392;42.696;23.350;2022-10-28T04:25:21;96588.53;;;7.73;95.30
40708;BME280;26392;42.696;23.350;2022-10-28T04:27:47;96589.56;;;7.66;95.56
40708;BME280;26392;42.696;23.350;2022-10-28T04:30:12;96591.84;;;7.62;95.67
40708;BME280;26392;42.696;23.350;2022-10-28T04:32:40;96585.78;;;7.67;95.81
40708;BME280;26392;42.696;23.350;2022-10-28T04:35:06;96581.59;;;7.64;95.34
40708;BME280;26392;42.696;23.350;2022-10-28T04:37:31;96591.66;;;7.70;95.56
40708;BME280;26392;42.696;23.350;2022-10-28T04:39:57;96592.25;;;7.72;95.83
40708;BME280;26392;42.696;23.350;2022-10-28T04:42:23;96595.84;;;7.79;95.48
40708;BME280;26392;42.696;23.350;2022-10-28T04:44:48;96594.56;;;7.75;95.58
40708;BME280;26392;42.696;23.350;2022-10-28T04:47:14;96592.03;;;7.67;95.95
40708;BME280;26392;42.696;23.350;2022-10-28T04:49:39;96592.03;;;7.60;96.03
40708;BME280;26392;42.696;23.350;2022-10-28T04:52:04;96588.91;;;7.57;96.01
40708;BME280;26392;42.696;23.350;2022-10-28T04:54:30;96586.38;;;7.55;96.32
40708;BME280;26392;42.696;23.350;2022-10-28T04:56:55;96582.84;;;7.55;96.48
40708;BME280;26392;42.696;23.350;2022-10-28T04:59:21;96585.38;;;7.70;95.97
40708;BME280;26392;42.696;23.350;2022-10-28T05:01:46;96589.97;;;7.62;95.76
40708;BME280;26392;42.696;23.350;2022-10-28T05:04:11;96591.44;;;7.65;95.75
40708;BME280;26392;42.696;23.350;2022-10-28T05:06:37;96593.91;;;7.60;95.89
40708;BME280;26392;42.696;23.350;2022-10-28T05:09:02;96590.56;;;7.58;96.01
40708;BME280;26392;42.696;23.350;2022-10-28T05:11:28;96597.66;;;7.52;96.49
40708;BME280;26392;42.696;23.350;2022-10-28T05:13:53;96601.66;;;7.63;96.26
40708;BME280;26392;42.696;23.350;2022-10-28T05:16:19;96590.16;;;7.61;96.56
40708;BME280;26392;42.696;23.350;2022-10-28T05:18:44;96605.78;;;7.52;96.48
40708;BME280;26392;42.696;23.350;2022-10-28T05:21:10;96600.78;;;7.49;96.88
40708;BME280;26392;42.696;23.350;2022-10-28T05:23:35;96608.72;;;7.57;97.42
40708;BME280;26392;42.696;23.350;2022-10-28T05:26:01;96606.66;;;7.66;97.18
40708;BME280;26392;42.696;23.350;2022-10-28T05:28:26;96608.97;;;7.69;96.98
40708;BME280;26392;42.696;23.350;2022-10-28T05:30:51;96609.59;;;7.71;96.77
40708;BME280;26392;42.696;23.350;2022-10-28T05:33:17;96618.78;;;7.70;96.49
40708;BME280;26392;42.696;23.350;2022-10-28T05:35:42;96612.53;;;7.76;96.57
40708;BME280;26392;42.696;23.350;2022-10-28T05:38:08;96608.34;;;7.80;96.06
40708;BME280;26392;42.696;23.350;2022-10-28T05:40:33;96617.53;;;7.79;96.18
40708;BME280;26392;42.696;23.350;2022-10-28T05:43:00;96627.94;;;7.69;96.70
40708;BME280;26392;42.696;23.350;2022-10-28T05:45:26;96631.50;;;7.70;96.67
40708;BME280;26392;42.696;23.350;2022-10-28T05:47:51;96639.03;;;7.74;96.69
40708;BME280;26392;42.696;23.350;2022-10-28T05:50:18;96633.81;;;7.86;96.76
40708;BME280;26392;42.696;23.350;2022-10-28T05:52:52;96633.22;;;7.97;96.70
40708;BME280;26392;42.696;23.350;2022-10-28T05:55:19;96634.91;;;8.05;96.15
40708;BME280;26392;42.696;23.350;2022-10-28T05:57:46;96634.94;;;8.18;95.67
40708;BME280;26392;42.696;23.350;2022-10-28T06:00:12;96637.84;;;8.30;95.44
40708;BME280;26392;42.696;23.350;2022-10-28T06:02:39;96636.38;;;8.27;94.51
40708;BME280;26392;42.696;23.350;2022-10-28T06:05:04;96635.97;;;8.30;94.18
40708;BME280;26392;42.696;23.350;2022-10-28T06:07:30;96644.13;;;8.30;94.06
40708;BME280;26392;42.696;23.350;2022-10-28T06:09:55;96648.50;;;8.25;94.21
40708;BME280;26392;42.696;23.350;2022-10-28T06:12:21;96646.41;;;8.20;94.31
40708;BME280;26392;42.696;23.350;2022-10-28T06:14:46;96647.03;;;8.22;94.84
40708;BME280;26392;42.696;23.350;2022-10-28T06:17:11;96658.09;;;8.34;94.33
40708;BME280;26392;42.696;23.350;2022-10-28T06:19:37;96661.47;;;8.29;94.22
40708;BME280;26392;42.696;23.350;2022-10-28T06:22:02;96663.53;;;8.34;94.45
40708;BME280;26392;42.696;23.350;2022-10-28T06:24:28;96660.88;;;8.47;94.20
40708;BME280;26392;42.696;23.350;2022-10-28T06:26:53;96665.69;;;8.52;93.38
40708;BME280;26392;42.696;23.350;2022-10-28T06:29:18;96660.03;;;8.67;92.96
40708;BME280;26392;42.696;23.350;2022-10-28T06:31:44;96654.19;;;8.77;92.73
40708;BME280;26392;42.696;23.350;2022-10-28T06:34:10;96655.19;;;8.89;92.34
40708;BME280;26392;42.696;23.350;2022-10-28T06:36:37;96654.97;;;8.90;91.79
40708;BME280;26392;42.696;23.350;2022-10-28T06:39:02;96654.34;;;8.95;91.55
40708;BME280;26392;42.696;23.350;2022-10-28T06:41:28;96652.44;;;9.02;91.27
40708;BME280;26392;42.696;23.350;2022-10-28T06:43:53;96653.44;;;9.21;90.84
40708;BME280;26392;42.696;23.350;2022-10-28T06:46:19;96651.13;;;9.25;90.42
40708;BME280;26392;42.696;23.350;2022-10-28T06:48:44;96658.63;;;9.29;89.50
40708;BME280;26392;42.696;23.350;2022-10-28T06:51:09;96651.69;;;9.40;89.39
40708;BME280;26392;42.696;23.350;2022-10-28T06:53:35;96650.81;;;9.46;88.86
40708;BME280;26392;42.696;23.350;2022-10-28T06:56:00;96656.22;;;9.59;88.37
40708;BME280;26392;42.696;23.350;2022-10-28T06:58:26;96650.69;;;9.79;87.86
40708;BME280;26392;42.696;23.350;2022-10-28T07:00:51;96645.38;;;9.91;87.15
40708;BME280;26392;42.696;23.350;2022-10-28T07:03:17;96649.03;;;10.10;86.54
40708;BME280;26392;42.696;23.350;2022-10-28T07:05:44;96646.22;;;10.23;85.55
40708;BME280;26392;42.696;23.350;2022-10-28T07:08:09;96656.88;;;10.25;84.95
40708;BME280;26392;42.696;23.350;2022-10-28T07:10:35;96652.91;;;10.27;84.77
40708;BME280;26392;42.696;23.350;2022-10-28T07:13:01;96659.28;;;10.46;83.84
40708;BME280;26392;42.696;23.350;2022-10-28T07:15:26;96654.19;;;10.57;82.98
40708;BME280;26392;42.696;23.350;2022-10-28T07:17:55;96645.94;;;10.63;84.22
40708;BME280;26392;42.696;23.350;2022-10-28T07:20:22;96658.34;;;10.84;83.69
40708;BME280;26392;42.696;23.350;2022-10-28T07:22:54;96658.38;;;10.52;82.31
40708;BME280;26392;42.696;23.350;2022-10-28T07:25:20;96652.84;;;10.66;83.07
40708;BME280;26392;42.696;23.350;2022-10-28T07:27:45;96659.09;;;10.91;81.70
40708;BME280;26392;42.696;23.350;2022-10-28T07:30:11;96647.44;;;11.03;80.56
40708;BME280;26392;42.696;23.350;2022-10-28T07:32:36;96659.75;;;11.12;80.98
40708;BME280;26392;42.696;23.350;2022-10-28T07:35:01;96654.97;;;11.26;80.33
40708;BME280;26392;42.696;23.350;2022-10-28T07:37:27;96654.53;;;11.29;80.01
40708;BME280;26392;42.696;23.350;2022-10-28T07:39:52;96650.19;;;11.39;78.97
40708;BME280;26392;42.696;23.350;2022-10-28T07:42:18;96648.25;;;11.47;78.59
40708;BME280;26392;42.696;23.350;2022-10-28T07:44:43;96649.16;;;11.40;78.22
40708;BME280;26392;42.696;23.350;2022-10-28T07:47:08;96652.41;;;11.49;78.31
40708;BME280;26392;42.696;23.350;2022-10-28T07:49:34;96647.78;;;11.68;77.67
40708;BME280;26392;42.696;23.350;2022-10-28T07:51:59;96649.72;;;11.79;77.06
40708;BME280;26392;42.696;23.350;2022-10-28T07:54:25;96649.44;;;11.88;76.59
40708;BME280;26392;42.696;23.350;2022-10-28T07:56:50;96644.69;;;11.95;75.84
40708;BME280;26392;42.696;23.350;2022-10-28T07:59:15;96639.66;;;12.10;75.87
40708;BME280;26392;42.696;23.350;2022-10-28T08:01:41;96647.31;;;12.31;75.74
40708;BME280;26392;42.696;23.350;2022-10-28T08:04:06;96645.34;;;12.50;73.43
40708;BME280;26392;42.696;23.350;2022-10-28T08:06:33;96640.63;;;12.58;73.21
40708;BME280;26392;42.696;23.350;2022-10-28T08:08:59;96651.00;;;12.37;73.68
40708;BME280;26392;42.696;23.350;2022-10-28T08:11:24;96648.69;;;12.52;73.61
40708;BME280;26392;42.696;23.350;2022-10-28T08:13:51;96647.28;;;12.62;72.99
40708;BME280;26392;42.696;23.350;2022-10-28T08:16:17;96642.75;;;12.79;72.08
40708;BME280;26392;42.696;23.350;2022-10-28T08:18:42;96648.38;;;12.84;71.74
40708;BME280;26392;42.696;23.350;2022-10-28T08:21:10;96642.06;;;12.95;71.37
40708;BME280;26392;42.696;23.350;2022-10-28T08:23:36;96642.44;;;13.11;70.84
40708;BME280;26392;42.696;23.350;2022-10-28T08:26:06;96640.03;;;13.14;70.61
40708;BME280;26392;42.696;23.350;2022-10-28T08:28:31;96645.75;;;13.36;70.10
40708;BME280;26392;42.696;23.350;2022-10-28T08:31:01;96641.81;;;13.56;69.24
40708;BME280;26392;42.696;23.350;2022-10-28T08:33:27;96640.19;;;13.72;68.41
40708;BME280;26392;42.696;23.350;2022-10-28T08:35:55;96645.41;;;13.85;67.23
40708;BME280;26392;42.696;23.350;2022-10-28T08:38:20;96638.94;;;13.91;67.24
40708;BME280;26392;42.696;23.350;2022-10-28T08:44:13;96630.97;;;14.18;66.91
40708;BME280;26392;42.696;23.350;2022-10-28T08:49:15;96624.91;;;14.33;64.91
40708;BME280;26392;42.696;23.350;2022-10-28T08:51:50;96630.59;;;14.43;65.25
40708;BME280;26392;42.696;23.350;2022-10-28T08:57:05;96628.41;;;14.74;64.31
40708;BME280;26392;42.696;23.350;2022-10-28T08:59:38;96615.50;;;14.91;63.61
40708;BME280;26392;42.696;23.350;2022-10-28T09:02:21;96618.97;;;15.04;62.70
40708;BME280;26392;42.696;23.350;2022-10-28T09:04:52;96619.13;;;15.14;62.76
40708;BME280;26392;42.696;23.350;2022-10-28T09:07:21;96616.94;;;15.33;61.87
40708;BME280;26392;42.696;23.350;2022-10-28T09:09:49;96607.44;;;15.40;61.63
40708;BME280;26392;42.696;23.350;2022-10-28T09:20:20;96607.63;;;16.00;59.60
40708;BME280;26392;42.696;23.350;2022-10-28T09:23:07;96603.63;;;16.13;59.56
40708;BME280;26392;42.696;23.350;2022-10-28T09:31:08;96586.41;;;16.22;58.78
40708;BME280;26392;42.696;23.350;2022-10-28T09:33:44;96581.91;;;16.43;57.94
40708;BME280;26392;42.696;23.350;2022-10-28T09:36:30;96585.38;;;16.28;57.93
40708;BME280;26392;42.696;23.350;2022-10-28T09:38:59;96575.50;;;16.32;58.46
40708;BME280;26392;42.696;23.350;2022-10-28T09:41:38;96575.66;;;16.48;57.45
40708;BME280;26392;42.696;23.350;2022-10-28T09:44:42;96569.03;;;16.49;57.12
40708;BME280;26392;42.696;23.350;2022-10-28T09:47:21;96563.00;;;16.52;57.56
40708;BME280;26392;42.696;23.350;2022-10-28T09:49:50;96563.28;;;16.50;57.91
40708;BME280;26392;42.696;23.350;2022-10-28T09:52:23;96563.88;;;16.58;57.15
40708;BME280;26392;42.696;23.350;2022-10-28T09:54:52;96547.88;;;16.82;56.15
40708;BME280;26392;42.696;23.350;2022-10-28T09:57:19;96540.81;;;16.96;55.66
40708;BME280;26392;42.696;23.350;2022-10-28T09:59:45;96539.44;;;16.98;55.63
40708;BME280;26392;42.696;23.350;2022-10-28T10:02:25;96536.44;;;17.05;55.51
40708;BME280;26392;42.696;23.350;2022-10-28T10:04:51;96537.03;;;17.12;55.50
40708;BME280;26392;42.696;23.350;2022-10-28T10:07:27;96534.47;;;16.95;56.00
40708;BME280;26392;42.696;23.350;2022-10-28T10:09:56;96538.66;;;17.08;55.86
40708;BME280;26392;42.696;23.350;2022-10-28T10:12:24;96529.66;;;17.23;55.16
40708;BME280;26392;42.696;23.350;2022-10-28T10:14:52;96521.75;;;17.37;54.76
40708;BME280;26392;42.696;23.350;2022-10-28T10:17:24;96523.69;;;17.47;54.28
40708;BME280;26392;42.696;23.350;2022-10-28T10:22:37;96525.13;;;17.54;53.79
40708;BME280;26392;42.696;23.350;2022-10-28T10:30:21;96509.78;;;17.84;52.32
40708;BME280;26392;42.696;23.350;2022-10-28T10:32:47;96501.00;;;17.87;52.05
40708;BME280;26392;42.696;23.350;2022-10-28T10:37:43;96500.16;;;17.97;51.57
40708;BME280;26392;42.696;23.350;2022-10-28T10:40:25;96500.69;;;17.83;50.82
40708;BME280;26392;42.696;23.350;2022-10-28T10:42:53;96494.94;;;17.90;50.66
40708;BME280;26392;42.696;23.350;2022-10-28T10:45:25;96495.50;;;18.02;50.61
40708;BME280;26392;42.696;23.350;2022-10-28T10:48:13;96493.84;;;18.06;50.16
40708;BME280;26392;42.696;23.350;2022-10-28T10:50:49;96487.75;;;17.99;48.69
40708;BME280;26392;42.696;23.350;2022-10-28T10:53:29;96481.13;;;18.00;48.28
40708;BME280;26392;42.696;23.350;2022-10-28T10:56:03;96485.31;;;18.18;48.28
40708;BME280;26392;42.696;23.350;2022-10-28T10:58:50;96477.56;;;18.20;48.64
40708;BME280;26392;42.696;23.350;2022-10-28T11:01:20;96475.91;;;18.14;48.54
40708;BME280;26392;42.696;23.350;2022-10-28T11:04:07;96470.41;;;18.24;48.52
40708;BME280;26392;42.696;23.350;2022-10-28T11:06:42;96469.84;;;18.38;48.01
40708;BME280;26392;42.696;23.350;2022-10-28T11:11:52;96466.81;;;18.54;47.17
40708;BME280;26392;42.696;23.350;2022-10-28T11:14:30;96466.78;;;18.65;46.01
40708;BME280;26392;42.696;23.350;2022-10-28T11:17:01;96455.47;;;18.71;45.73
40708;BME280;26392;42.696;23.350;2022-10-28T11:19:29;96456.56;;;18.81;45.17
40708;BME280;26392;42.696;23.350;2022-10-28T11:29:41;96446.84;;;18.98;43.67
40708;BME280;26392;42.696;23.350;2022-10-28T11:32:18;96450.16;;;19.06;43.25
40708;BME280;26392;42.696;23.350;2022-10-28T11:41:21;96439.81;;;19.27;41.86
40708;BME280;26392;42.696;23.350;2022-10-28T11:43:52;96435.38;;;19.36;41.18
40708;BME280;26392;42.696;23.350;2022-10-28T11:49:25;96432.63;;;19.36;42.24
40708;BME280;26392;42.696;23.350;2022-10-28T11:55:15;96422.03;;;19.48;42.02
40708;BME280;26392;42.696;23.350;2022-10-28T11:58:08;96415.97;;;19.46;42.25
40708;BME280;26392;42.696;23.350;2022-10-28T12:09:08;96413.63;;;19.74;39.92
40708;BME280;26392;42.696;23.350;2022-10-28T12:17:06;96409.47;;;19.71;40.85
40708;BME280;26392;42.696;23.350;2022-10-28T12:19:58;96411.09;;;19.77;40.96
40708;BME280;26392;42.696;23.350;2022-10-28T12:22:31;96412.19;;;19.81;40.72
40708;BME280;26392;42.696;23.350;2022-10-28T12:25:06;96412.19;;;19.81;41.32
40708;BME280;26392;42.696;23.350;2022-10-28T12:27:36;96409.47;;;19.71;40.89
40708;BME280;26392;42.696;23.350;2022-10-28T12:30:25;96408.91;;;19.74;41.75
40708;BME280;26392;42.696;23.350;2022-10-28T12:35:53;96396.44;;;19.77;42.14
40708;BME280;26392;42.696;23.350;2022-10-28T12:41:23;96394.25;;;19.74;41.68
40708;BME280;26392;42.696;23.350;2022-10-28T12:44:00;96394.78;;;19.81;41.89
40708;BME280;26392;42.696;23.350;2022-10-28T12:53:17;96391.50;;;19.74;41.44
40708;BME280;26392;42.696;23.350;2022-10-28T12:57:53;96380.19;;;19.65;41.45
40708;BME280;26392;42.696;23.350;2022-10-28T13:00:31;96384.66;;;19.61;41.60
40708;BME280;26392;42.696;23.350;2022-10-28T13:03:02;96385.16;;;19.73;41.93
40708;BME280;26392;42.696;23.350;2022-10-28T13:05:35;96373.50;;;19.76;41.61
40708;BME280;26392;42.696;23.350;2022-10-28T13:10:41;96374.63;;;19.75;41.66
40708;BME280;26392;42.696;23.350;2022-10-28T13:13:36;96381.00;;;19.71;41.51
40708;BME280;26392;42.696;23.350;2022-10-28T13:27:11;96379.47;;;19.49;41.82
40708;BME280;26392;42.696;23.350;2022-10-28T13:29:39;96373.63;;;19.56;41.82
40708;BME280;26392;42.696;23.350;2022-10-28T13:32:27;96375.00;;;19.58;41.70
40708;BME280;26392;42.696;23.350;2022-10-28T13:34:54;96371.44;;;19.53;41.29
40708;BME280;26392;42.696;23.350;2022-10-28T13:37:21;96365.81;;;19.63;41.64
40708;BME280;26392;42.696;23.350;2022-10-28T13:39:47;96376.88;;;19.63;41.92
40708;BME280;26392;42.696;23.350;2022-10-28T13:44:55;96365.00;;;19.62;41.69
40708;BME280;26392;42.696;23.350;2022-10-28T13:47:36;96363.38;;;19.61;41.82
40708;BME280;26392;42.696;23.350;2022-10-28T13:52:33;96359.47;;;19.62;41.46
40708;BME280;26392;42.696;23.350;2022-10-28T13:58:03;96360.38;;;19.53;41.50
40708;BME280;26392;42.696;23.350;2022-10-28T14:03:05;96355.72;;;19.48;41.65
40708;BME280;26392;42.696;23.350;2022-10-28T14:08:37;96354.16;;;19.32;41.65
40708;BME280;26392;42.696;23.350;2022-10-28T14:13:48;96362.41;;;19.37;41.29
40708;BME280;26392;42.696;23.350;2022-10-28T14:16:22;96359.41;;;19.33;41.53
40708;BME280;26392;42.696;23.350;2022-10-28T14:21:43;96353.00;;;19.38;41.67
40708;BME280;26392;42.696;23.350;2022-10-28T14:24:15;96354.44;;;19.35;41.73
40708;BME280;26392;42.696;23.350;2022-10-28T14:35:04;96349.25;;;19.18;41.54
40708;BME280;26392;42.696;23.350;2022-10-28T14:40:50;96351.56;;;19.01;41.88
40708;BME280;26392;42.696;23.350;2022-10-28T14:43:51;96345.56;;;18.89;42.00
40708;BME280;26392;42.696;23.350;2022-10-28T14:48:57;96341.97;;;18.83;42.57
40708;BME280;26392;42.696;23.350;2022-10-28T14:51:35;96345.31;;;18.75;42.47
40708;BME280;26392;42.696;23.350;2022-10-28T14:54:08;96343.63;;;18.84;43.19
40708;BME280;26392;42.696;23.350;2022-10-28T14:56:34;96343.34;;;18.86;42.73
40708;BME280;26392;42.696;23.350;2022-10-28T15:04:20;96339.28;;;18.58;43.31
40708;BME280;26392;42.696;23.350;2022-10-28T15:06:45;96337.69;;;18.31;43.86
40708;BME280;26392;42.696;23.350;2022-10-28T15:09:18;96334.44;;;18.19;44.11
40708;BME280;26392;42.696;23.350;2022-10-28T15:11:48;96337.75;;;18.10;44.38
40708;BME280;26392;42.696;23.350;2022-10-28T15:16:49;96342.19;;;17.96;44.88
40708;BME280;26392;42.696;23.350;2022-10-28T15:19:18;96342.44;;;17.89;45.25
40708;BME280;26392;42.696;23.350;2022-10-28T15:22:01;96339.41;;;17.76;45.54
40708;BME280;26392;42.696;23.350;2022-10-28T15:24:27;96336.91;;;17.69;45.65
40708;BME280;26392;42.696;23.350;2022-10-28T15:26:54;96339.66;;;17.64;45.75
40708;BME280;26392;42.696;23.350;2022-10-28T15:29:20;96344.91;;;17.65;45.93
40708;BME280;26392;42.696;23.350;2022-10-28T15:32:04;96336.38;;;17.62;45.83
40708;BME280;26392;42.696;23.350;2022-10-28T15:34:30;96349.03;;;17.58;45.83
40708;BME280;26392;42.696;23.350;2022-10-28T15:36:56;96346.56;;;17.56;45.58
40708;BME280;26392;42.696;23.350;2022-10-28T15:39:22;96343.81;;;17.51;44.32
40708;BME280;26392;42.696;23.350;2022-10-28T15:41:49;96348.19;;;17.47;44.37
40708;BME280;26392;42.696;23.350;2022-10-28T15:46:51;96350.94;;;17.42;43.24
40708;BME280;26392;42.696;23.350;2022-10-28T15:49:37;96356.72;;;17.35;43.29
40708;BME280;26392;42.696;23.350;2022-10-28T15:54:41;96356.16;;;17.23;42.96
40708;BME280;26392;42.696;23.350;2022-10-28T15:57:20;96360.00;;;17.17;42.87
40708;BME280;26392;42.696;23.350;2022-10-28T15:59:46;96357.50;;;17.15;42.76
40708;BME280;26392;42.696;23.350;2022-10-28T16:02:38;96361.34;;;17.09;42.83
40708;BME280;26392;42.696;23.350;2022-10-28T16:05:04;96360.78;;;17.07;42.55
40708;BME280;26392;42.696;23.350;2022-10-28T16:07:29;96369.59;;;17.04;42.85